createdAt,value
2022-10-28T00:01:36.873Z,48.97
2022-10-28T00:04:05.288Z,43.85
2022-10-28T00:06:35.127Z,43.13
2022-10-28T00:09:08.159Z,40.85
2022-10-28T00:11:39.914Z,31.40
2022-10-28T00:14:08.689Z,40.75
2022-10-28T00:16:38.281Z,37.90
2022-10-28T00:19:07.630Z,31.55
2022-10-28T00:21:37.494Z,36.92
2022-10-28T00:24:07.902Z,36.30
2022-10-28T00:26:37.601Z,32.90
2022-10-28T00:29:06.705Z,34.72
2022-10-28T00:31:36.361Z,38.92
2022-10-28T00:34:05.828Z,42.33
2022-10-28T00:36:35.573Z,40.95
2022-10-28T00:39:04.700Z,39.03
2022-10-28T00:41:39.316Z,40.05
2022-10-28T00:44:22.310Z,41.00
2022-10-28T00:46:53.422Z,34.35
2022-10-28T00:49:23.578Z,42.85
2022-10-28T00:51:53.547Z,31.73
2022-10-28T00:54:22.401Z,35.47
2022-10-28T00:56:54.018Z,33.88
2022-10-28T00:59:24.322Z,38.38
2022-10-28T01:01:53.073Z,34.35
2022-10-28T01:04:22.211Z,33.78
2022-10-28T01:06:51.370Z,32.95
2022-10-28T01:09:19.603Z,42.63
2022-10-28T01:11:55.208Z,38.43
2022-10-28T01:14:28.322Z,34.95
2022-10-28T01:17:02.137Z,38.05
2022-10-28T01:19:50.312Z,41.72
2022-10-28T01:22:22.141Z,32.20
2022-10-28T01:25:05.188Z,36.72
2022-10-28T01:27:52.525Z,36.22
2022-10-28T01:30:21.635Z,30.17
2022-10-28T01:32:57.015Z,37.47
2022-10-28T01:35:28.601Z,40.15
2022-10-28T01:38:03.050Z,36.53
2022-10-28T01:40:34.636Z,46.58
2022-10-28T01:43:07.987Z,63.58
2022-10-28T01:45:38.961Z,50.25
2022-10-28T01:48:13.553Z,39.88
2022-10-28T01:50:45.098Z,34.88
2022-10-28T01:53:15.434Z,44.63
2022-10-28T01:55:44.488Z,42.63
2022-10-28T01:58:14.519Z,42.10
2022-10-28T02:00:44.650Z,41.20
2022-10-28T02:03:14.623Z,41.15
2022-10-28T02:05:44.077Z,43.30
2022-10-28T02:08:35.292Z,40.50
2022-10-28T02:11:12.581Z,48.22
2022-10-28T02:13:46.175Z,59.13
2022-10-28T02:16:17.157Z,44.33
2022-10-28T02:18:49.725Z,55.15
2022-10-28T02:21:21.155Z,46.47
2022-10-28T02:23:51.750Z,52.10
2022-10-28T02:26:23.356Z,41.03
2022-10-28T02:28:55.855Z,35.35
2022-10-28T02:35:08.904Z,39.28
2022-10-28T02:37:40.133Z,32.75
2022-10-28T02:40:11.025Z,46.25
2022-10-28T02:42:42.481Z,47.20
2022-10-28T02:45:16.091Z,27.67
2022-10-28T02:47:46.383Z,40.58
2022-10-28T02:50:17.229Z,27.38
2022-10-28T02:52:47.525Z,22.88
2022-10-28T02:55:15.883Z,30.58
2022-10-28T02:57:48.566Z,33.05
2022-10-28T03:00:17.676Z,34.30
2022-10-28T03:05:15.674Z,27.35
2022-10-28T03:07:44.184Z,21.98
2022-10-28T03:10:12.340Z,21.52
2022-10-28T03:12:40.829Z,26.87
2022-10-28T03:15:09.550Z,20.88
2022-10-28T03:17:37.944Z,20.17
2022-10-28T03:20:06.499Z,27.98
2022-10-28T03:22:36.635Z,19.10
2022-10-28T03:25:04.992Z,25.88
2022-10-28T03:27:33.358Z,20.27
2022-10-28T03:30:01.442Z,19.92
2022-10-28T03:32:29.995Z,18.02
2022-10-28T03:34:58.215Z,18.95
2022-10-28T03:37:26.624Z,18.52
2022-10-28T03:39:56.133Z,18.83
2022-10-28T03:42:24.535Z,20.73
2022-10-28T03:44:52.709Z,18.83
2022-10-28T03:47:21.224Z,18.35
2022-10-28T03:49:49.388Z,19.02
2022-10-28T03:52:17.870Z,18.40
2022-10-28T03:54:46.161Z,19.52
2022-10-28T03:57:15.956Z,17.42
2022-10-28T03:59:44.125Z,19.80
2022-10-28T04:02:12.941Z,22.10
2022-10-28T04:04:41.313Z,17.17
2022-10-28T04:07:09.736Z,18.05
2022-10-28T04:09:37.891Z,15.70
2022-10-28T04:12:07.472Z,17.10
2022-10-28T04:14:36.986Z,15.63
2022-10-28T04:17:05.357Z,15.85
2022-10-28T04:19:33.416Z,17.33
2022-10-28T04:22:01.693Z,16.77
2022-10-28T04:24:34.187Z,17.05
2022-10-28T04:27:02.774Z,16.17
2022-10-28T04:29:31.066Z,15.40
2022-10-28T04:32:01.505Z,18.80
2022-10-28T04:34:40.313Z,23.10
2022-10-28T04:39:41.713Z,28.75
2022-10-28T04:42:10.655Z,28.48
2022-10-28T04:44:39.614Z,24.55
2022-10-28T04:47:13.655Z,32.25
2022-10-28T04:49:42.248Z,42.05
2022-10-28T04:52:14.849Z,47.22
2022-10-28T04:54:44.527Z,47.75
2022-10-28T04:57:13.977Z,43.33
2022-10-28T04:59:42.359Z,44.47
2022-10-28T05:02:12.792Z,43.10
2022-10-28T05:04:41.834Z,45.03
2022-10-28T05:07:10.965Z,49.17
2022-10-28T05:09:39.894Z,45.75
2022-10-28T05:12:09.095Z,40.45
2022-10-28T05:14:37.605Z,47.50
2022-10-28T05:17:06.516Z,42.75
2022-10-28T05:19:37.047Z,50.00
2022-10-28T05:22:06.316Z,46.22
2022-10-28T05:24:35.000Z,50.28
2022-10-28T05:27:04.613Z,54.42
2022-10-28T05:29:33.524Z,45.17
2022-10-28T05:32:02.485Z,46.70
2022-10-28T05:34:31.483Z,56.50
2022-10-28T05:37:02.118Z,53.85
2022-10-28T05:39:33.368Z,53.53
2022-10-28T05:42:02.488Z,53.08
2022-10-28T05:44:30.971Z,61.88
2022-10-28T05:46:59.533Z,57.90
2022-10-28T05:49:28.577Z,60.10
2022-10-28T05:51:57.778Z,55.85
2022-10-28T05:54:27.946Z,58.00
2022-10-28T05:56:56.871Z,62.55
2022-10-28T05:59:25.828Z,57.05
2022-10-28T06:01:58.004Z,56.42
2022-10-28T06:04:27.182Z,56.20
2022-10-28T06:09:24.327Z,48.03
2022-10-28T06:11:53.722Z,49.28
2022-10-28T06:14:23.233Z,55.92
2022-10-28T06:16:52.434Z,60.58
2022-10-28T06:19:22.161Z,47.60
2022-10-28T06:21:51.060Z,53.30
2022-10-28T06:24:19.664Z,60.33
2022-10-28T06:26:49.156Z,63.85
2022-10-28T06:29:19.480Z,68.55
2022-10-28T06:31:48.508Z,70.97
2022-10-28T06:34:17.199Z,75.70
2022-10-28T06:36:46.735Z,69.75
2022-10-28T06:39:16.563Z,73.88
2022-10-28T06:41:46.505Z,71.47
2022-10-28T06:46:47.330Z,73.40
2022-10-28T06:49:16.978Z,76.28
2022-10-28T06:51:46.088Z,85.65
2022-10-28T06:54:16.363Z,67.03
2022-10-28T06:56:46.091Z,73.70
2022-10-28T06:59:22.816Z,67.95
2022-10-28T07:01:53.851Z,72.32
2022-10-28T07:04:23.445Z,63.72
2022-10-28T07:06:57.040Z,70.80
2022-10-28T07:09:26.323Z,74.18
2022-10-28T07:12:04.573Z,72.30
2022-10-28T07:14:36.643Z,58.28
2022-10-28T07:17:07.488Z,58.15
2022-10-28T07:19:36.873Z,65.53
2022-10-28T07:22:05.930Z,76.53
2022-10-28T07:24:35.610Z,74.68
2022-10-28T07:27:04.688Z,100.20
2022-10-28T07:29:34.733Z,107.20
2022-10-28T07:32:03.596Z,100.10
2022-10-28T07:34:34.712Z,92.32
2022-10-28T07:37:05.770Z,86.07
2022-10-28T07:39:34.847Z,83.20
2022-10-28T07:42:03.546Z,77.78
2022-10-28T07:44:34.096Z,62.22
2022-10-28T07:47:02.847Z,72.45
2022-10-28T07:49:33.637Z,66.80
2022-10-28T07:52:07.796Z,62.60
2022-10-28T07:54:39.038Z,65.82
2022-10-28T07:57:15.436Z,59.22
2022-10-28T07:59:52.028Z,51.53
2022-10-28T08:02:32.553Z,57.15
2022-10-28T08:05:02.772Z,52.08
2022-10-28T08:07:38.705Z,46.85
2022-10-28T08:10:11.012Z,52.97
2022-10-28T08:12:46.838Z,53.10
2022-10-28T08:15:27.233Z,49.28
2022-10-28T08:17:57.022Z,54.58
2022-10-28T08:20:44.204Z,57.13
2022-10-28T08:23:25.584Z,55.72
2022-10-28T08:25:54.989Z,53.10
2022-10-28T08:28:24.709Z,50.30
2022-10-28T08:31:07.616Z,53.28
2022-10-28T08:33:52.180Z,49.70
2022-10-28T08:38:55.891Z,48.92
2022-10-28T08:41:31.022Z,56.05
2022-10-28T08:44:24.496Z,61.85
2022-10-28T08:46:59.046Z,53.42
2022-10-28T08:49:42.472Z,48.97
2022-10-28T08:52:25.583Z,64.30
2022-10-28T08:55:02.418Z,54.15
2022-10-28T08:57:52.509Z,55.75
2022-10-28T09:00:29.842Z,53.55
2022-10-28T09:03:12.370Z,51.90
2022-10-28T09:05:44.670Z,55.72
2022-10-28T09:08:22.446Z,49.30
2022-10-28T09:10:59.308Z,54.85
2022-10-28T09:13:31.678Z,51.10
2022-10-28T09:16:09.390Z,58.20
2022-10-28T09:18:50.764Z,59.70
2022-10-28T09:21:24.262Z,49.47
2022-10-28T09:24:00.077Z,54.22
2022-10-28T09:26:44.600Z,55.42
2022-10-28T09:29:28.073Z,52.17
2022-10-28T09:32:04.332Z,53.13
2022-10-28T09:34:38.704Z,48.95
2022-10-28T09:37:15.108Z,51.35
2022-10-28T09:39:50.037Z,47.08
2022-10-28T09:42:24.217Z,50.50
2022-10-28T09:45:07.288Z,48.78
2022-10-28T09:47:43.253Z,45.25
2022-10-28T09:50:28.289Z,43.65
2022-10-28T09:53:36.078Z,45.33
2022-10-28T09:56:31.816Z,45.35
2022-10-28T09:59:18.114Z,47.60
2022-10-28T10:05:37.616Z,38.15
2022-10-28T10:08:20.503Z,39.25
2022-10-28T10:11:02.708Z,36.42
2022-10-28T10:14:07.655Z,39.35
2022-10-28T10:20:35.337Z,39.05
2022-10-28T10:23:27.938Z,34.65
2022-10-28T10:26:06.679Z,39.65
2022-10-28T15:05:00.029Z,26.95
2022-10-28T18:20:08.580Z,61.17
2022-10-28T18:58:29.558Z,78.38
2022-10-28T19:11:33.178Z,66.73
2022-10-28T19:14:29.049Z,56.63
2022-10-28T19:24:41.563Z,53.05
2022-10-28T19:47:18.170Z,67.68
2022-10-28T19:53:20.473Z,56.47
2022-10-28T19:55:53.119Z,57.67
2022-10-28T20:05:08.160Z,35.20
2022-10-28T20:23:30.659Z,91.78
2022-10-28T20:26:51.639Z,76.53
2022-10-28T20:33:13.440Z,54.92
2022-10-28T20:36:02.775Z,60.28
2022-10-28T20:38:47.341Z,40.50
2022-10-28T20:41:59.963Z,35.65
2022-10-28T20:47:55.806Z,34.42
2022-10-28T20:50:38.764Z,62.53
2022-10-28T20:53:29.764Z,45.28
2022-10-28T20:56:17.482Z,29.05
2022-10-28T20:59:25.956Z,35.20
2022-10-28T21:02:21.984Z,30.75
2022-10-28T21:05:38.225Z,27.45
2022-10-28T21:08:11.164Z,29.35
2022-10-28T21:10:41.820Z,26.60
2022-10-28T21:16:00.484Z,25.08
2022-10-28T21:18:58.755Z,28.02
2022-10-28T21:21:54.586Z,23.77
2022-10-28T21:25:04.535Z,19.85
2022-10-28T21:30:50.245Z,22.80
2022-10-28T21:40:00.989Z,18.02
2022-10-28T21:45:34.959Z,23.00
2022-10-28T21:48:21.575Z,19.63
2022-10-28T21:54:20.077Z,22.08
2022-10-28T21:57:12.765Z,24.92
2022-10-28T21:59:42.668Z,18.20
2022-10-28T22:02:38.184Z,24.02
2022-10-28T22:05:18.811Z,22.75
2022-10-28T22:37:37.318Z,16.63
2022-10-28T22:40:44.729Z,16.40
2022-10-28T22:43:50.571Z,15.75
2022-10-28T22:50:02.447Z,18.25
2022-10-28T22:53:01.586Z,18.42
2022-10-28T22:55:35.294Z,25.77
2022-10-28T23:00:32.864Z,14.05
2022-10-28T23:03:03.494Z,18.23
2022-10-28T23:05:37.871Z,19.88
2022-10-28T23:08:06.886Z,17.17
2022-10-28T23:10:38.747Z,16.80
2022-10-28T23:13:09.030Z,18.23
2022-10-28T23:15:38.451Z,17.08
2022-10-28T23:18:10.989Z,15.30
2022-10-28T23:20:49.152Z,19.27
2022-10-28T23:23:21.164Z,24.05
2022-10-28T23:25:54.356Z,21.17
2022-10-28T23:28:23.266Z,23.02
2022-10-28T23:30:52.427Z,21.92
2022-10-28T23:33:23.673Z,14.95
2022-10-28T23:35:58.236Z,20.83
2022-10-28T23:38:27.586Z,16.67
2022-10-28T23:40:59.164Z,15.93
2022-10-28T23:43:29.789Z,24.88
2022-10-28T23:45:59.336Z,18.45
2022-10-28T23:48:28.588Z,20.33
2022-10-28T23:51:00.783Z,21.35
2022-10-28T23:53:31.616Z,16.73
2022-10-28T23:56:03.682Z,17.02
2022-10-28T23:58:34.258Z,19.45
